Time;durP1;ratioP1;P1;durP2;ratioP2;P2;SDS_P1;SDS_P2;PMS_P1;PMS_P2;Temp;Humidity;BMP_temperature;BMP_pressure;BME280_temperature;BME280_humidity;BME280_pressure;Samples;Min_cycle;Max_cycle;Signal;HPM_P1;HPM_P2
2023/01/13 00:00:08;;;;;;;60.35;39.83;;;20.70;99.90;;;;;;1919762;73;21561;-85
2023/01/13 00:02:40;;;;;;;50.38;33.98;;;20.70;99.90;;;;;;1879843;74;21712;-85
2023/01/13 00:05:12;;;;;;;45.40;33.78;;;20.60;99.90;;;;;;1926912;73;21240;-84
2023/01/13 00:07:45;;;;;;;51.85;33.40;;;20.60;99.90;;;;;;1882675;75;21551;-84
2023/01/13 00:10:17;;;;;;;50.92;33.85;;;20.60;99.90;;;;;;1922644;73;21088;-84
2023/01/13 00:12:50;;;;;;;60.38;34.48;;;20.50;99.90;;;;;;1918038;73;21531;-84
2023/01/13 00:15:22;;;;;;;51.08;32.03;;;20.60;99.90;;;;;;1931826;73;21512;-84
2023/01/13 00:17:54;;;;;;;55.67;33.60;;;20.60;99.90;;;;;;1918869;73;21068;-84
2023/01/13 00:20:28;;;;;;;49.77;34.03;;;20.60;99.90;;;;;;1929407;73;21539;-84
2023/01/13 00:23:00;;;;;;;49.98;32.80;;;20.60;99.90;;;;;;1927296;73;21119;-85
2023/01/13 00:25:32;;;;;;;47.70;32.95;;;20.60;99.90;;;;;;1880879;74;21982;-84
2023/01/13 00:28:05;;;;;;;57.95;33.25;;;20.60;99.90;;;;;;1929592;73;21248;-84
2023/01/13 00:30:37;;;;;;;56.18;33.35;;;20.60;99.90;;;;;;1918212;73;21098;-85
2023/01/13 00:33:13;;;;;;;54.40;35.05;;;20.60;99.90;;;;;;1926732;73;21068;-84
2023/01/13 00:35:45;;;;;;;50.43;34.80;;;20.60;99.90;;;;;;1882470;74;21108;-84
2023/01/13 00:38:17;;;;;;;51.18;34.98;;;20.60;99.90;;;;;;1920904;73;21508;-85
2023/01/13 00:40:57;;;;;;;53.38;35.88;;;20.60;99.90;;;;;;1882231;74;21125;-83
2023/01/13 00:43:31;;;;;;;62.00;36.63;;;20.60;99.90;;;;;;1857697;76;21095;-85
2023/01/13 00:46:03;;;;;;;64.75;37.05;;;20.70;99.90;;;;;;1914852;73;21170;-84
2023/01/13 00:48:36;;;;;;;60.30;37.15;;;20.70;99.90;;;;;;1922094;73;21111;-86
2023/01/13 00:51:10;;;;;;;59.67;37.15;;;20.80;99.90;;;;;;1914358;73;21255;-72
2023/01/13 00:53:45;;;;;;;58.30;39.10;;;20.70;99.90;;;;;;1885793;74;21084;-73
2023/01/13 00:56:21;;;;;;;71.40;39.98;;;20.70;99.90;;;;;;1891931;74;21524;-72
2023/01/13 00:58:57;;;;;;;64.15;38.60;;;20.90;99.90;;;;;;1884023;74;21078;-72
2023/01/13 01:01:28;;;;;;;72.92;42.40;;;20.90;99.90;;;;;;1914819;73;21166;-73
2023/01/13 01:04:01;;;;;;;60.85;38.83;;;20.80;99.90;;;;;;1914232;73;21890;-72
2023/01/13 01:06:34;;;;;;;65.78;40.95;;;20.90;99.90;;;;;;1918904;73;21064;-72
2023/01/13 01:09:05;;;;;;;65.10;40.73;;;20.90;99.90;;;;;;1882554;74;21754;-72
2023/01/13 01:11:46;;;;;;;64.22;40.70;;;20.90;99.90;;;;;;1916882;73;21075;-71
2023/01/13 01:14:18;;;;;;;61.20;40.63;;;20.90;99.90;;;;;;1924416;73;21886;-71
2023/01/13 01:16:54;;;;;;;61.45;38.98;;;20.90;99.90;;;;;;1921085;73;21115;-72
2023/01/13 01:19:46;;;;;;;62.25;40.95;;;20.90;99.90;;;;;;1894085;73;21142;-73
2023/01/13 01:22:19;;;;;;;66.42;39.75;;;21.00;99.90;;;;;;1922547;73;21122;-73
2023/01/13 01:24:54;;;;;;;65.35;40.38;;;21.00;99.90;;;;;;1886802;74;21084;-73
2023/01/13 01:27:30;;;;;;;61.25;40.80;;;21.00;99.90;;;;;;1925246;73;21040;-74
2023/01/13 01:30:04;;;;;;;62.03;39.13;;;21.00;99.90;;;;;;1863768;75;21200;-73
2023/01/13 01:32:41;;;;;;;60.80;40.75;;;21.00;99.90;;;;;;1926880;73;21127;-73
2023/01/13 01:35:14;;;;;;;67.55;40.98;;;21.10;99.90;;;;;;1919597;73;21228;-73
2023/01/13 01:37:48;;;;;;;69.17;43.58;;;21.00;99.90;;;;;;1920163;73;21113;-74
2023/01/13 01:40:26;;;;;;;69.27;44.90;;;21.10;99.90;;;;;;1890675;73;21107;-73
2023/01/13 01:46:05;;;;;;;64.10;40.78;;;21.20;99.90;;;;;;1918087;73;21125;-72
2023/01/13 01:48:39;;;;;;;56.13;39.30;;;21.30;99.90;;;;;;1926444;73;21036;-74
2023/01/13 01:51:17;;;;;;;54.50;37.85;;;21.30;99.90;;;;;;1884467;74;21182;-73
2023/01/13 01:53:47;;;;;;;62.35;41.83;;;21.40;99.90;;;;;;1921209;73;21088;-72
2023/01/13 01:56:21;;;;;;;55.65;37.38;;;21.40;99.90;;;;;;1918964;73;21201;-73
2023/01/13 01:58:54;;;;;;;54.38;38.90;;;21.40;99.90;;;;;;1913739;73;21163;-72
2023/01/13 02:01:26;;;;;;;51.53;37.28;;;21.60;99.90;;;;;;1921477;73;21180;-72
2023/01/13 02:04:00;;;;;;;49.53;36.08;;;21.60;99.90;;;;;;1915164;74;21123;-72
2023/01/13 02:06:32;;;;;;;47.38;35.28;;;21.70;99.90;;;;;;1922843;73;21052;-72
2023/01/13 02:09:05;;;;;;;46.33;34.40;;;21.70;99.90;;;;;;1917192;73;21181;-71
2023/01/13 02:14:29;;;;;;;46.45;34.55;;;21.80;99.90;;;;;;1914187;73;21087;-72
2023/01/13 02:17:19;;;;;;;46.42;34.08;;;21.90;99.90;;;;;;1921533;74;21171;-71
2023/01/13 02:20:10;;;;;;;45.63;34.75;;;21.90;99.90;;;;;;1908571;73;21111;-71
2023/01/13 02:23:00;;;;;;;41.30;32.13;;;22.00;99.90;;;;;;1918892;74;21158;-74
2023/01/13 02:25:41;;;;;;;42.50;33.08;;;22.10;99.90;;;;;;1913508;73;21149;-72
2023/01/13 02:28:18;;;;;;;42.73;33.85;;;22.10;99.90;;;;;;1912667;73;21091;-72
2023/01/13 02:33:59;;;;;;;42.17;32.73;;;22.20;99.90;;;;;;1921331;73;21214;-72
2023/01/13 02:36:54;;;;;;;41.60;34.33;;;22.30;99.90;;;;;;1924622;73;21080;-73
2023/01/13 02:39:52;;;;;;;45.60;33.85;;;22.30;99.90;;;;;;1919385;73;21193;-73
2023/01/13 02:45:21;;;;;;;43.17;32.05;;;22.40;99.90;;;;;;1914584;73;21197;-87
2023/01/13 02:47:55;;;;;;;43.78;34.98;;;22.40;99.90;;;;;;1923332;73;21228;-87
2023/01/13 02:50:29;;;;;;;44.40;33.70;;;22.50;99.90;;;;;;1922542;73;21117;-88
2023/01/13 02:53:22;;;;;;;40.30;31.52;;;22.70;99.90;;;;;;1887517;75;21183;-89
2023/01/13 02:55:56;;;;;;;41.02;32.03;;;22.70;99.90;;;;;;1883402;75;21146;-87
2023/01/13 02:58:30;;;;;;;42.15;32.30;;;22.80;99.90;;;;;;1888385;75;21227;-87
2023/01/13 03:01:03;;;;;;;39.75;31.42;;;22.80;99.90;;;;;;1876771;75;21079;-89
2023/01/13 03:03:35;;;;;;;43.52;31.95;;;22.80;99.90;;;;;;1873333;76;21622;-88
2023/01/13 03:06:14;;;;;;;40.50;33.28;;;22.80;99.90;;;;;;1925409;74;21125;-87
2023/01/13 03:08:48;;;;;;;39.80;31.37;;;22.90;99.90;;;;;;1925470;73;21598;-88
2023/01/13 03:11:20;;;;;;;42.75;34.15;;;22.80;99.90;;;;;;1932406;73;21602;-87
2023/01/13 03:14:08;;;;;;;44.90;35.33;;;22.80;99.90;;;;;;1931112;73;21076;-87
2023/01/13 03:16:45;;;;;;;41.75;34.08;;;22.80;99.90;;;;;;1932940;73;21061;-87
2023/01/13 03:19:42;;;;;;;42.58;34.70;;;22.90;99.90;;;;;;1934902;73;21063;-86
2023/01/13 03:22:21;;;;;;;42.53;33.60;;;22.90;99.90;;;;;;1930159;73;21122;-88
2023/01/13 03:25:07;;;;;;;50.83;38.35;;;22.90;99.90;;;;;;1929922;73;21087;-87
2023/01/13 03:27:47;;;;;;;45.20;33.10;;;23.00;99.90;;;;;;1925448;73;21183;-88
2023/01/13 03:30:31;;;;;;;44.23;34.50;;;23.10;99.90;;;;;;1925307;73;21123;-87
2023/01/13 03:33:07;;;;;;;40.67;33.50;;;23.10;99.90;;;;;;1925609;73;21173;-87
2023/01/13 03:35:40;;;;;;;46.30;34.85;;;23.20;99.90;;;;;;1923007;73;21224;-87
2023/01/13 03:38:20;;;;;;;54.48;39.73;;;23.30;99.90;;;;;;1926879;73;21064;-85
2023/01/13 03:40:53;;;;;;;49.20;36.33;;;23.40;99.90;;;;;;1923677;73;21068;-87
2023/01/13 03:46:21;;;;;;;63.98;44.80;;;23.60;99.90;;;;;;1916304;73;21189;-87
2023/01/13 03:48:53;;;;;;;;;;;23.70;99.90;;;;;;1925266;73;21115;-86
2023/01/13 03:51:26;;;;;;;62.62;44.38;;;23.80;99.90;;;;;;1930729;73;20240;-86
2023/01/13 03:54:00;;;;;;;58.80;40.80;;;24.00;99.90;;;;;;1925827;73;21131;-85
2023/01/13 03:56:37;;;;;;;65.05;46.15;;;24.10;99.90;;;;;;1929859;73;21056;-86
2023/01/13 03:59:13;;;;;;;59.88;42.08;;;24.20;99.90;;;;;;1931051;73;21207;-87
2023/01/13 04:01:46;;;;;;;61.50;45.12;;;24.30;99.90;;;;;;1926214;73;21134;-87
2023/01/13 04:04:20;;;;;;;60.52;44.53;;;24.30;99.90;;;;;;1922993;73;21056;-88
2023/01/13 04:07:22;;;;;;;56.92;41.58;;;24.40;99.90;;;;;;1927682;73;21177;-87
2023/01/13 04:10:00;;;;;;;53.60;40.23;;;24.50;99.90;;;;;;1889693;74;21125;-86
2023/01/13 04:15:31;;;;;;;52.38;39.38;;;24.80;99.90;;;;;;1901118;75;21146;-87
2023/01/13 04:18:19;;;;;;;49.45;38.20;;;24.90;99.90;;;;;;1883619;76;21201;-89
2023/01/13 04:20:56;;;;;;;42.13;32.95;;;25.30;99.90;;;;;;1927237;73;21158;-87
2023/01/13 04:23:27;;;;;;;33.48;28.47;;;25.00;99.90;;;;;;1936785;73;21146;-87
2023/01/13 04:25:59;;;;;;;40.73;32.90;;;25.10;99.90;;;;;;1946042;73;21156;-87
2023/01/13 04:28:32;;;;;;;39.88;33.05;;;25.20;99.90;;;;;;1926216;73;21056;-87
2023/01/13 04:31:07;;;;;;;31.80;25.57;;;25.30;99.90;;;;;;1889256;75;21091;-89
2023/01/13 04:33:40;;;;;;;30.37;25.82;;;25.20;99.90;;;;;;1854797;76;21067;-89
2023/01/13 04:36:11;;;;;;;34.30;25.85;;;25.10;99.90;;;;;;1861873;76;21095;-89
2023/01/13 04:38:43;;;;;;;30.02;26.42;;;25.40;99.90;;;;;;1896482;75;21146;-89
2023/01/13 04:41:14;;;;;;;33.42;27.10;;;25.50;99.90;;;;;;1891233;75;21061;-89
2023/01/13 04:43:46;;;;;;;30.92;27.15;;;25.60;99.90;;;;;;1903980;74;21047;-89
2023/01/13 04:46:17;;;;;;;32.63;28.60;;;25.60;99.90;;;;;;1901867;74;21118;-89
2023/01/13 04:48:48;;;;;;;28.23;23.02;;;25.80;99.90;;;;;;1924172;73;21563;-90
2023/01/13 04:51:19;;;;;;;24.32;20.88;;;25.90;99.90;;;;;;1932732;73;21552;-90
2023/01/13 04:53:51;;;;;;;25.45;19.60;;;26.10;99.90;;;;;;1928901;73;21106;-88
2023/01/13 04:56:22;;;;;;;19.57;16.32;;;26.00;99.90;;;;;;1929921;73;21602;-86
2023/01/13 04:58:54;;;;;;;18.42;16.35;;;26.30;99.90;;;;;;1931201;73;21825;-87
2023/01/13 05:01:26;;;;;;;23.55;17.70;;;26.00;99.90;;;;;;1892165;75;21714;-89
2023/01/13 05:03:58;;;;;;;19.07;17.07;;;26.20;99.90;;;;;;1833568;77;21163;-89
2023/01/13 05:06:29;;;;;;;21.77;19.35;;;26.30;99.90;;;;;;1883046;75;21126;-88
2023/01/13 05:09:00;;;;;;;20.65;18.55;;;26.40;99.90;;;;;;1886046;75;21087;-89
2023/01/13 05:17:16;;;;;;;20.27;15.72;;;26.60;99.90;;;;;;1886320;75;21183;-89
2023/01/13 05:19:47;;;;;;;17.70;15.90;;;26.70;99.90;;;;;;1886015;75;21138;-90
2023/01/13 05:25:21;;;;;;;17.55;15.72;;;26.90;98.10;;;;;;1859383;75;21091;-87
2023/01/13 05:27:57;;;;;;;17.37;14.68;;;27.10;98.40;;;;;;1848968;76;21091;-72
2023/01/13 05:30:33;;;;;;;19.10;15.10;;;27.20;97.50;;;;;;1832120;76;21138;-73
2023/01/13 05:33:05;;;;;;;16.15;14.50;;;27.30;97.50;;;;;;1847706;76;21141;-74
2023/01/13 05:35:37;;;;;;;18.55;15.13;;;27.40;97.10;;;;;;1861907;76;21079;-72
2023/01/13 05:38:15;;;;;;;18.95;16.32;;;27.50;96.60;;;;;;1859638;76;21696;-73
2023/01/13 05:43:34;;;;;;;17.35;15.63;;;27.60;95.90;;;;;;1885280;75;21202;-71
2023/01/13 05:46:08;;;;;;;18.73;15.75;;;27.70;96.40;;;;;;1883225;75;21064;-73
2023/01/13 05:48:43;;;;;;;16.37;13.70;;;27.70;96.80;;;;;;1882165;75;21574;-71
2023/01/13 05:51:14;;;;;;;15.90;14.00;;;27.80;95.40;;;;;;1916451;73;21236;-72
2023/01/13 05:53:47;;;;;;;15.00;13.50;;;27.80;95.40;;;;;;1922129;73;21617;-72
2023/01/13 05:56:18;;;;;;;16.32;14.58;;;27.80;95.60;;;;;;1921328;73;21185;-72
2023/01/13 05:58:49;;;;;;;15.83;13.20;;;27.80;95.00;;;;;;1917685;73;21095;-72
2023/01/13 06:01:21;;;;;;;14.05;12.58;;;27.90;95.50;;;;;;1884724;74;21088;-73
2023/01/13 06:03:53;;;;;;;13.53;12.23;;;27.90;95.20;;;;;;1863378;75;21159;-71
2023/01/13 06:06:26;;;;;;;13.35;11.90;;;27.90;94.40;;;;;;1926836;73;21068;-71
2023/01/13 06:08:57;;;;;;;19.07;13.78;;;28.00;94.90;;;;;;1917987;73;21162;-72
2023/01/13 06:11:29;;;;;;;16.23;14.43;;;28.00;94.50;;;;;;1915533;73;21168;-71
2023/01/13 06:14:01;;;;;;;14.10;12.55;;;28.00;94.10;;;;;;1851092;76;21216;-71
2023/01/13 06:16:33;;;;;;;15.50;12.53;;;28.00;94.10;;;;;;1848510;76;21079;-72
2023/01/13 06:19:07;;;;;;;13.45;11.65;;;28.00;94.30;;;;;;1883462;74;21088;-72
2023/01/13 06:21:37;;;;;;;13.55;11.05;;;28.00;93.30;;;;;;1928254;73;21692;-72
2023/01/13 06:24:09;;;;;;;12.73;11.45;;;28.00;93.10;;;;;;1920944;73;21713;-71
2023/01/13 06:26:41;;;;;;;13.35;11.97;;;28.00;93.30;;;;;;1921664;73;21140;-69
2023/01/13 06:29:22;;;;;;;33.30;13.30;;;28.00;93.60;;;;;;1922402;73;21072;-71
2023/01/13 06:31:52;;;;;;;15.10;12.88;;;28.10;93.80;;;;;;1917207;73;21067;-71
2023/01/13 06:34:23;;;;;;;14.45;12.93;;;28.10;93.30;;;;;;1922953;73;21138;-71
2023/01/13 06:36:57;;;;;;;15.18;13.72;;;28.00;93.90;;;;;;1886065;74;21178;-72
2023/01/13 06:39:36;;;;;;;18.20;13.20;;;28.00;93.80;;;;;;1879855;75;21170;-72
2023/01/13 06:45:00;;;;;;;12.82;11.10;;;28.00;94.30;;;;;;1917481;73;21080;-72
2023/01/13 06:47:32;;;;;;;14.23;12.53;;;28.10;93.70;;;;;;1917775;73;21134;-72
2023/01/13 06:50:07;;;;;;;11.97;10.38;;;28.20;93.70;;;;;;1921383;73;21119;-71
2023/01/13 06:52:38;;;;;;;12.23;10.93;;;28.40;93.10;;;;;;1918226;73;21108;-71
2023/01/13 06:55:10;;;;;;;15.70;12.33;;;28.50;93.20;;;;;;1919686;73;21139;-70
2023/01/13 06:57:55;;;;;;;9.13;7.85;;;28.60;92.80;;;;;;1924736;73;21163;-69
2023/01/13 07:00:35;;;;;;;14.43;11.55;;;28.70;92.10;;;;;;1919337;73;21615;-71
2023/01/13 07:03:12;;;;;;;13.28;10.98;;;28.80;92.50;;;;;;1914466;73;21152;-71
2023/01/13 07:05:45;;;;;;;16.15;11.48;;;28.90;92.40;;;;;;1912824;73;21670;-68
2023/01/13 07:08:18;;;;;;;11.20;9.20;;;29.00;92.30;;;;;;1917027;73;21472;-71
2023/01/13 07:10:51;;;;;;;21.40;9.83;;;29.00;91.20;;;;;;1851814;76;21080;-71
2023/01/13 07:16:12;;;;;;;13.30;9.75;;;29.10;89.50;;;;;;1917890;73;21236;-70
2023/01/13 07:18:44;;;;;;;12.15;8.78;;;29.10;90.40;;;;;;1879287;74;21143;-71
2023/01/13 07:21:18;;;;;;;10.05;7.83;;;29.10;90.00;;;;;;1914640;73;21535;-71
2023/01/13 07:23:51;;;;;;;9.07;8.17;;;29.10;89.20;;;;;;1918993;73;21073;-70
2023/01/13 07:26:25;;;;;;;9.80;7.75;;;29.10;88.10;;;;;;1916969;73;21252;-70
2023/01/13 07:28:56;;;;;;;12.40;8.13;;;;;;;;;;1918021;73;21079;-72
2023/01/13 07:31:33;;;;;;;9.78;7.67;;;29.20;86.10;;;;;;1916944;73;21255;-70
2023/01/13 07:34:04;;;;;;;23.60;9.23;;;29.20;85.00;;;;;;1917431;73;21145;-70
2023/01/13 07:36:38;;;;;;;10.55;8.98;;;29.10;87.70;;;;;;1914328;73;21554;-71
2023/01/13 07:39:10;;;;;;;11.70;8.40;;;29.10;90.30;;;;;;1918876;73;21123;-70
2023/01/13 07:44:32;;;;;;;11.90;8.78;;;29.20;91.20;;;;;;1922665;74;21217;-71
2023/01/13 07:47:09;;;;;;;10.58;8.48;;;29.20;91.40;;;;;;1877280;74;21201;-70
2023/01/13 07:49:40;;;;;;;9.45;7.50;;;29.30;91.20;;;;;;1883861;74;21202;-70
2023/01/13 07:52:14;;;;;;;12.73;8.80;;;29.20;90.70;;;;;;1921118;73;21116;-70
2023/01/13 07:54:45;;;;;;;10.80;8.13;;;29.20;91.00;;;;;;1921554;73;21600;-70
2023/01/13 07:57:16;;;;;;;11.97;9.70;;;29.20;86.90;;;;;;1915969;73;21167;-71
2023/01/13 07:59:47;;;;;;;12.00;8.60;;;29.10;85.80;;;;;;1918684;73;21152;-71
2023/01/13 08:02:19;;;;;;;10.75;8.95;;;29.10;85.90;;;;;;1923282;73;21135;-72
2023/01/13 08:04:50;;;;;;;11.28;8.98;;;29.10;86.00;;;;;;1852108;76;21152;-71
2023/01/13 08:07:21;;;;;;;9.80;8.80;;;29.10;86.40;;;;;;1915150;74;21124;-71
2023/01/13 08:09:52;;;;;;;10.00;8.03;;;29.10;88.50;;;;;;1916621;73;21130;-71
2023/01/13 08:15:14;;;;;;;10.28;7.53;;;29.10;90.60;;;;;;1877377;75;21648;-73
2023/01/13 08:17:45;;;;;;;8.70;7.55;;;29.00;90.30;;;;;;1913079;73;21691;-73
2023/01/13 08:20:19;;;;;;;9.60;8.60;;;29.00;90.20;;;;;;1921678;73;21190;-70
2023/01/13 08:22:53;;;;;;;9.98;8.13;;;28.90;89.20;;;;;;1921918;73;21072;-71
2023/01/13 08:25:25;;;;;;;11.95;8.95;;;28.90;89.80;;;;;;1922927;73;21072;-73
2023/01/13 08:27:58;;;;;;;8.90;7.70;;;28.90;88.30;;;;;;1920388;73;21076;-72
2023/01/13 08:30:29;;;;;;;11.70;8.60;;;29.00;87.20;;;;;;1917353;73;21233;-72
2023/01/13 08:33:01;;;;;;;9.93;8.00;;;29.00;87.00;;;;;;1925787;73;21374;-72
2023/01/13 08:35:39;;;;;;;11.95;8.70;;;29.00;86.30;;;;;;1920686;73;21181;-72
2023/01/13 08:38:11;;;;;;;9.75;7.78;;;29.00;85.30;;;;;;1920395;73;21123;-73
2023/01/13 08:40:42;;;;;;;15.25;8.30;;;29.10;85.40;;;;;;1920372;73;21119;-74
2023/01/13 08:43:13;;;;;;;11.70;8.18;;;29.00;86.50;;;;;;1914405;74;21185;-71
2023/01/13 08:46:07;;;;;;;11.95;9.15;;;29.00;86.80;;;;;;1913967;73;21530;-70
2023/01/13 08:48:37;;;;;;;9.50;8.33;;;29.00;86.00;;;;;;1917532;73;21050;-72
2023/01/13 08:51:11;;;;;;;11.75;8.63;;;29.10;85.90;;;;;;1911886;73;21150;-73
2023/01/13 08:53:43;;;;;;;11.30;8.80;;;29.10;85.70;;;;;;1904153;74;21161;-72
2023/01/13 08:56:15;;;;;;;14.60;8.98;;;29.10;85.70;;;;;;1904238;75;21684;-73
2023/01/13 08:58:51;;;;;;;8.98;8.05;;;29.10;85.70;;;;;;1900843;75;22016;-72
2023/01/13 09:01:24;;;;;;;10.30;8.28;;;29.10;85.60;;;;;;1898674;74;21112;-73
2023/01/13 09:03:55;;;;;;;10.25;8.60;;;29.10;86.30;;;;;;1895916;74;21102;-72
2023/01/13 09:06:27;;;;;;;14.55;9.80;;;29.00;86.20;;;;;;1901178;74;21092;-72
2023/01/13 09:09:01;;;;;;;10.25;8.05;;;29.00;86.30;;;;;;1901702;74;21171;-72
2023/01/13 09:14:25;;;;;;;9.75;8.15;;;29.00;85.30;;;;;;1904703;75;21215;-71
2023/01/13 09:17:06;;;;;;;10.45;8.90;;;29.00;85.20;;;;;;1856942;76;21626;-71
2023/01/13 09:19:37;;;;;;;11.68;9.43;;;29.00;85.90;;;;;;1844854;77;21693;-70
2023/01/13 09:22:17;;;;;;;9.75;8.68;;;29.00;86.50;;;;;;1845408;76;21373;-71
2023/01/13 09:24:48;;;;;;;12.75;9.18;;;29.00;87.10;;;;;;1845570;77;21128;-71
2023/01/13 09:27:20;;;;;;;13.85;10.03;;;29.00;88.80;;;;;;1848952;76;21243;-73
2023/01/13 09:29:51;;;;;;;10.58;9.05;;;28.90;89.10;;;;;;1857718;76;21200;-74
2023/01/13 09:32:22;;;;;;;10.20;8.65;;;28.90;89.40;;;;;;1861234;76;21087;-73
2023/01/13 09:34:59;;;;;;;14.18;10.85;;;28.80;89.90;;;;;;1865666;76;21196;-72
2023/01/13 09:37:33;;;;;;;11.60;8.60;;;28.80;89.90;;;;;;1823654;77;21154;-73
2023/01/13 09:40:08;;;;;;;9.90;8.38;;;28.70;89.70;;;;;;1862779;76;21774;-70
2023/01/13 09:45:49;;;;;;;8.80;7.72;;;28.70;87.80;;;;;;1863270;76;21178;-74
2023/01/13 09:48:50;;;;;;;8.88;7.97;;;28.70;87.10;;;;;;1861737;76;21127;-75
2023/01/13 09:51:16;;;;;;;9.80;8.55;;;28.70;86.90;;;;;;1829085;77;21150;-74
2023/01/13 09:53:54;;;;;;;9.53;8.23;;;28.70;87.20;;;;;;1842877;77;21186;-74
2023/01/13 09:56:28;;;;;;;10.20;8.93;;;28.60;86.70;;;;;;1825001;77;21175;-74
2023/01/13 09:59:04;;;;;;;11.90;8.73;;;28.60;87.10;;;;;;1858700;76;21719;-76
2023/01/13 10:01:41;;;;;;;12.98;8.90;;;28.60;87.40;;;;;;1846554;76;21090;-72
2023/01/13 10:04:16;;;;;;;11.55;9.20;;;28.50;88.50;;;;;;1819304;77;21154;-73
2023/01/13 10:07:01;;;;;;;13.18;10.72;;;28.50;88.00;;;;;;1812229;77;21198;-73
2023/01/13 10:09:47;;;;;;;10.80;9.43;;;28.50;89.00;;;;;;1852870;76;21560;-71
2023/01/13 10:15:18;;;;;;;11.15;9.53;;;28.30;90.60;;;;;;1853523;76;21583;-73
2023/01/13 10:17:52;;;;;;;13.85;11.83;;;28.20;91.10;;;;;;1813123;78;21160;-72
2023/01/13 10:20:50;;;;;;;13.85;10.43;;;28.20;91.40;;;;;;1833489;78;21165;-71
2023/01/13 10:23:39;;;;;;;;;;;28.10;91.60;;;;;;1823223;77;21215;-72
2023/01/13 10:26:33;;;;;;;14.50;9.55;;;28.00;92.20;;;;;;1847169;77;20296;-72
2023/01/13 10:29:05;;;;;;;11.80;9.70;;;28.00;92.10;;;;;;1848759;76;21267;-72
2023/01/13 10:31:38;;;;;;;12.85;10.65;;;27.90;92.20;;;;;;1849846;76;21764;-72
2023/01/13 10:34:15;;;;;;;14.70;10.45;;;27.90;92.30;;;;;;1858152;76;21184;-73
2023/01/13 10:37:05;;;;;;;14.78;11.57;;;27.80;92.40;;;;;;1853499;76;21607;-72
2023/01/13 10:39:42;;;;;;;15.23;11.65;;;27.70;92.50;;;;;;1849932;77;21144;-73
2023/01/13 10:42:40;;;;;;;14.75;12.07;;;27.70;92.70;;;;;;1853469;76;21555;-73
2023/01/13 10:45:14;;;;;;;18.35;11.95;;;27.70;92.80;;;;;;1874871;76;21208;-73
2023/01/13 10:47:47;;;;;;;16.25;11.65;;;27.60;93.00;;;;;;1858373;76;21523;-72
2023/01/13 10:50:31;;;;;;;16.27;11.83;;;27.60;93.10;;;;;;1859809;76;21154;-73
2023/01/13 10:53:20;;;;;;;12.98;10.55;;;27.60;93.20;;;;;;1859066;76;21186;-72
2023/01/13 10:56:04;;;;;;;14.50;10.05;;;27.50;93.30;;;;;;1835470;77;21639;-72
2023/01/13 10:58:35;;;;;;;15.23;10.40;;;27.50;93.40;;;;;;1895014;74;21217;-73
2023/01/13 11:01:08;;;;;;;12.58;10.23;;;27.50;93.50;;;;;;1895537;74;21322;-72
2023/01/13 11:03:43;;;;;;;12.58;10.50;;;27.40;93.60;;;;;;1889859;74;21079;-85
2023/01/13 11:06:22;;;;;;;12.95;10.32;;;27.40;93.60;;;;;;1905424;74;21063;-89
2023/01/13 11:08:57;;;;;;;13.08;10.32;;;27.30;93.60;;;;;;1888274;74;21637;-87
2023/01/13 11:11:49;;;;;;;14.53;10.00;;;27.30;93.70;;;;;;1891469;74;21155;-86
2023/01/13 11:14:38;;;;;;;14.07;11.03;;;27.20;93.80;;;;;;1885558;74;21131;-88
2023/01/13 11:17:22;;;;;;;17.02;10.85;;;27.20;93.90;;;;;;1893070;74;21020;-89
2023/01/13 11:19:58;;;;;;;12.63;10.55;;;27.10;94.00;;;;;;1879998;74;21208;-90
2023/01/13 11:22:36;;;;;;;14.83;11.28;;;27.20;94.10;;;;;;1893788;74;21134;-89
2023/01/13 11:25:19;;;;;;;15.60;11.20;;;27.10;94.30;;;;;;1883322;76;21159;-90
2023/01/13 11:28:12;;;;;;;13.98;10.75;;;27.10;94.90;;;;;;1875641;74;21068;-88
2023/01/13 11:30:54;;;;;;;17.52;10.72;;;27.10;94.60;;;;;;1827723;74;21122;-90
2023/01/13 11:33:41;;;;;;;;;;;27.00;94.60;;;;;;1900248;74;21064;-89
2023/01/13 11:36:20;;;;;;;14.98;10.80;;;27.00;94.50;;;;;;1908373;74;20493;-89
2023/01/13 11:38:54;;;;;;;12.25;10.70;;;27.00;94.80;;;;;;1904983;74;21233;-89
2023/01/13 11:41:37;;;;;;;26.82;18.62;;;27.00;94.80;;;;;;1908833;74;21036;-87
2023/01/13 11:44:25;;;;;;;26.23;18.92;;;27.00;94.90;;;;;;1902893;73;21129;-90
2023/01/13 11:46:59;;;;;;;22.90;17.20;;;26.90;94.90;;;;;;1926304;73;21080;-90
2023/01/13 11:49:33;;;;;;;21.20;14.43;;;26.80;94.90;;;;;;1929777;73;21186;-85
2023/01/13 11:52:26;;;;;;;19.00;13.88;;;26.80;95.00;;;;;;1851996;76;21515;-90
2023/01/13 11:55:27;;;;;;;19.02;13.78;;;26.80;95.10;;;;;;1861314;76;21191;-88
2023/01/13 11:58:21;;;;;;;22.02;14.53;;;26.80;95.10;;;;;;1872532;75;21124;-87
2023/01/13 12:01:09;;;;;;;18.60;13.28;;;26.80;95.10;;;;;;1874024;75;21143;-89
2023/01/13 12:03:55;;;;;;;18.48;12.80;;;26.80;95.20;;;;;;1882346;75;21104;-88
2023/01/13 12:06:44;;;;;;;16.45;13.03;;;26.70;95.20;;;;;;1868642;75;21165;-87
2023/01/13 12:09:45;;;;;;;15.40;12.13;;;26.70;95.20;;;;;;1848976;76;21110;-87
2023/01/13 12:12:26;;;;;;;17.52;13.20;;;26.70;95.20;;;;;;1839010;76;21093;-90
2023/01/13 12:15:01;;;;;;;17.12;12.70;;;26.70;95.20;;;;;;1920615;73;21291;-89
2023/01/13 12:17:40;;;;;;;16.35;12.85;;;26.60;95.20;;;;;;1921303;74;21096;-87
2023/01/13 12:20:36;;;;;;;17.45;12.18;;;26.60;95.30;;;;;;1928535;73;21552;-88
2023/01/13 12:23:09;;;;;;;17.57;13.43;;;26.60;95.30;;;;;;1919763;74;21124;-88
2023/01/13 12:25:48;;;;;;;15.15;12.33;;;26.60;95.40;;;;;;1923123;73;21100;-87
2023/01/13 12:28:22;;;;;;;14.20;11.97;;;26.60;95.40;;;;;;1924075;73;21081;-88
2023/01/13 12:31:03;;;;;;;16.17;12.40;;;26.50;95.60;;;;;;1929057;73;21065;-87
2023/01/13 12:33:48;;;;;;;19.20;12.55;;;26.50;95.60;;;;;;1919301;73;21208;-88
2023/01/13 12:36:31;;;;;;;15.98;12.98;;;26.50;95.60;;;;;;1921552;74;21163;-89
2023/01/13 12:39:37;;;;;;;16.35;12.47;;;26.50;95.60;;;;;;1911948;73;21209;-87
2023/01/13 12:45:33;;;;;;;16.77;13.80;;;26.50;95.80;;;;;;1843413;76;21100;-89
2023/01/13 12:48:28;;;;;;;19.48;14.47;;;26.50;95.90;;;;;;1849949;77;21514;-88
2023/01/13 12:51:05;;;;;;;15.75;12.82;;;26.50;95.90;;;;;;1862745;75;21137;-88
2023/01/13 12:53:35;;;;;;;17.20;12.98;;;26.40;96.00;;;;;;1873922;76;21085;-89
2023/01/13 12:56:43;;;;;;;16.07;13.58;;;26.40;96.10;;;;;;1857070;77;21084;-88
2023/01/13 12:59:22;;;;;;;15.63;13.20;;;26.40;96.10;;;;;;1858409;76;21095;-88
2023/01/13 13:01:58;;;;;;;15.60;13.13;;;26.40;96.10;;;;;;1889735;75;21566;-90
2023/01/13 13:04:52;;;;;;;15.58;13.18;;;26.40;96.20;;;;;;1855532;75;21144;-89
2023/01/13 13:07:36;;;;;;;15.55;13.22;;;26.40;96.10;;;;;;1894372;74;21079;-89
2023/01/13 13:10:18;;;;;;;16.77;13.15;;;26.30;96.60;;;;;;1891993;74;21309;-87
2023/01/13 13:15:45;;;;;;;18.75;13.32;;;26.30;96.20;;;;;;1882956;75;21072;-90
2023/01/13 13:18:26;;;;;;;19.50;12.73;;;26.30;96.30;;;;;;1879680;75;21175;-88
2023/01/13 13:21:03;;;;;;;23.07;14.10;;;26.30;96.40;;;;;;1883950;75;21143;-90
2023/01/13 13:23:48;;;;;;;20.60;15.23;;;26.30;96.30;;;;;;1893866;76;21204;-89
2023/01/13 13:26:33;;;;;;;20.82;15.32;;;26.30;96.40;;;;;;1901244;74;21128;-86
2023/01/13 13:29:13;;;;;;;19.27;15.00;;;26.30;96.40;;;;;;1867251;76;21161;-88
2023/01/13 13:32:04;;;;;;;19.35;14.03;;;26.30;96.50;;;;;;1896719;74;21209;-87
2023/01/13 13:34:53;;;;;;;18.25;13.40;;;26.20;96.60;;;;;;1936517;72;21211;-89
2023/01/13 13:37:33;;;;;;;22.02;14.07;;;26.20;96.60;;;;;;1945035;72;21059;-88
2023/01/13 13:48:57;;;;;;;21.65;16.62;;;26.20;97.10;;;;;;1928884;73;21492;-87
2023/01/13 13:51:36;;;;;;;20.35;14.95;;;26.20;97.20;;;;;;1929196;73;21250;-87
2023/01/13 13:54:10;;;;;;;19.98;14.93;;;26.10;97.10;;;;;;1857632;76;21154;-88
2023/01/13 13:56:43;;;;;;;19.00;16.35;;;26.10;97.30;;;;;;1875619;76;21135;-87
2023/01/13 13:59:17;;;;;;;19.92;15.83;;;26.10;97.40;;;;;;1922631;73;21169;-87
2023/01/13 14:02:00;;;;;;;20.92;16.57;;;26.10;97.50;;;;;;1900363;75;21192;-89
2023/01/13 14:04:34;;;;;;;20.08;16.50;;;26.00;97.60;;;;;;1880008;75;21133;-88
2023/01/13 14:07:21;;;;;;;22.13;15.93;;;26.00;97.80;;;;;;1894366;75;21445;-88
2023/01/13 14:09:58;;;;;;;18.42;14.95;;;26.00;97.50;;;;;;1846337;77;21146;-89
2023/01/13 14:12:29;;;;;;;20.70;16.57;;;26.00;97.40;;;;;;1881152;75;21164;-85
2023/01/13 14:15:00;;;;;;;22.70;17.55;;;26.00;97.70;;;;;;1878709;75;21579;-89
2023/01/13 14:17:34;;;;;;;21.95;16.93;;;26.00;97.60;;;;;;1856900;77;21086;-86
2023/01/13 14:20:08;;;;;;;28.02;18.00;;;26.00;97.70;;;;;;1906309;75;21085;-88
2023/01/13 14:22:39;;;;;;;18.40;14.55;;;26.00;97.90;;;;;;1851672;76;21135;-86